Time;durP1;ratioP1;P1;durP2;ratioP2;P2;SDS_P1;SDS_P2;PMS_P1;PMS_P2;Temp;Humidity;BMP_temperature;BMP_pressure;BME280_temperature;BME280_humidity;BME280_pressure;Samples;Min_cycle;Max_cycle;Signal;HPM_P1;HPM_P2
2021/01/06 00:01:43;;;;;;;7.55;3.17;;;6.00;88.10;;;;;;4995553;28;20108;-79
2021/01/06 00:04:08;;;;;;;6.75;2.70;;;6.00;88.10;;;;;;4995263;28;20179;-79
2021/01/06 00:06:37;;;;;;;8.20;2.60;;;6.00;88.10;;;;;;4995787;28;20029;-79
2021/01/06 00:09:04;;;;;;;7.32;3.13;;;5.90;88.20;;;;;;5013352;28;20485;-79
2021/01/06 00:11:40;;;;;;;6.28;2.22;;;6.00;88.20;;;;;;5013437;28;20022;-79
2021/01/06 00:14:14;;;;;;;6.75;3.08;;;6.00;88.20;;;;;;4995043;28;20080;-79
2021/01/06 00:16:40;;;;;;;9.40;2.92;;;6.00;88.20;;;;;;5013377;28;20156;-79
2021/01/06 00:19:07;;;;;;;4.68;2.35;;;6.00;88.20;;;;;;4994965;28;20022;-80
2021/01/06 00:21:36;;;;;;;7.45;2.65;;;6.00;88.30;;;;;;4995450;28;20379;-80
2021/01/06 00:24:02;;;;;;;7.63;3.10;;;6.00;88.30;;;;;;5012780;28;20121;-78
2021/01/06 00:26:35;;;;;;;10.05;3.67;;;5.90;88.20;;;;;;4995752;28;20026;-78
2021/01/06 00:29:01;;;;;;;7.20;3.65;;;5.90;88.30;;;;;;4997021;28;20032;-79
2021/01/06 00:31:27;;;;;;;6.80;2.85;;;5.90;88.40;;;;;;5013073;28;20208;-79
2021/01/06 00:33:52;;;;;;;9.80;3.30;;;5.90;88.40;;;;;;4996645;28;20022;-78
2021/01/06 00:36:20;;;;;;;7.55;2.72;;;5.80;88.60;;;;;;5016337;28;20072;-79
2021/01/06 00:38:46;;;;;;;7.95;2.75;;;5.80;88.60;;;;;;4996486;28;20018;-79
2021/01/06 00:41:12;;;;;;;8.00;3.00;;;5.80;88.70;;;;;;4995034;28;20428;-80
2021/01/06 00:43:38;;;;;;;9.15;3.35;;;5.80;88.70;;;;;;5012586;28;20033;-79
2021/01/06 00:46:04;;;;;;;8.10;2.90;;;5.80;88.70;;;;;;5012169;28;20097;-80
2021/01/06 00:48:29;;;;;;;8.43;3.45;;;5.90;88.60;;;;;;5013741;28;20059;-79
2021/01/06 00:50:55;;;;;;;8.13;2.88;;;5.90;88.50;;;;;;5015161;28;20049;-78
2021/01/06 00:53:24;;;;;;;7.63;2.78;;;5.90;88.50;;;;;;5012556;28;20033;-78
2021/01/06 00:55:54;;;;;;;7.13;3.25;;;5.90;88.50;;;;;;4994970;28;20400;-78
2021/01/06 00:58:21;;;;;;;5.88;2.40;;;5.90;88.50;;;;;;5013913;28;20018;-78
2021/01/06 01:00:46;;;;;;;8.45;2.92;;;5.90;88.40;;;;;;4997843;28;20018;-79
2021/01/06 01:03:12;;;;;;;5.75;2.70;;;5.90;88.40;;;;;;4995752;28;20056;-79
2021/01/06 01:05:38;;;;;;;7.63;3.25;;;5.90;88.40;;;;;;5013356;28;20156;-78
2021/01/06 01:08:07;;;;;;;7.63;2.78;;;5.90;88.40;;;;;;4995163;28;20465;-80
2021/01/06 01:10:39;;;;;;;7.82;2.83;;;5.90;88.50;;;;;;5013035;28;20030;-79
2021/01/06 01:13:16;;;;;;;7.80;2.53;;;5.90;88.50;;;;;;4994834;28;20482;-80
2021/01/06 01:15:44;;;;;;;8.48;3.13;;;5.90;88.40;;;;;;4995243;28;20353;-79
2021/01/06 01:18:16;;;;;;;11.15;3.47;;;5.90;88.40;;;;;;4994930;28;20036;-79
2021/01/06 01:20:43;;;;;;;8.90;2.90;;;6.00;88.40;;;;;;4994927;28;20080;-79
2021/01/06 01:23:09;;;;;;;8.02;2.63;;;5.90;88.40;;;;;;5012095;28;20022;-80
2021/01/06 01:25:34;;;;;;;6.47;2.40;;;5.90;88.40;;;;;;5012212;28;20033;-79
2021/01/06 01:28:00;;;;;;;5.25;2.55;;;6.00;89.00;;;;;;4995082;28;20054;-79
2021/01/06 01:30:27;;;;;;;8.18;2.97;;;5.90;88.30;;;;;;4995154;28;20121;-80
2021/01/06 01:32:53;;;;;;;9.25;3.20;;;5.90;88.40;;;;;;4998454;28;20041;-79
2021/01/06 01:35:26;;;;;;;6.57;2.50;;;5.90;88.40;;;;;;5015804;28;20419;-80
2021/01/06 01:37:53;;;;;;;7.07;2.63;;;5.90;88.40;;;;;;5016539;28;20014;-80
2021/01/06 01:40:28;;;;;;;7.15;2.40;;;5.90;88.40;;;;;;4997984;28;20353;-79
2021/01/06 01:42:57;;;;;;;6.30;2.75;;;6.00;88.40;;;;;;5015832;28;20014;-80
2021/01/06 01:45:44;;;;;;;7.60;2.60;;;6.00;88.40;;;;;;5015594;28;20486;-80
2021/01/06 01:48:42;;;;;;;8.15;2.90;;;6.00;88.30;;;;;;4997276;28;20049;-80
2021/01/06 01:51:35;;;;;;;7.57;2.47;;;6.00;88.20;;;;;;4997749;28;20026;-79
2021/01/06 01:54:13;;;;;;;7.78;2.72;;;6.00;88.20;;;;;;4998332;28;20028;-79
2021/01/06 01:56:46;;;;;;;5.15;2.30;;;6.00;88.20;;;;;;4998185;28;20376;-79
2021/01/06 01:59:20;;;;;;;6.88;3.28;;;6.00;88.20;;;;;;4997332;28;20029;-79
2021/01/06 02:01:49;;;;;;;5.70;2.58;;;6.00;88.30;;;;;;5015091;28;20026;-79
2021/01/06 02:04:25;;;;;;;6.88;3.10;;;5.90;88.20;;;;;;5015111;28;20104;-79
2021/01/06 02:07:06;;;;;;;6.78;2.50;;;5.90;88.30;;;;;;5015292;28;20018;-79
2021/01/06 02:10:00;;;;;;;7.35;2.22;;;6.00;88.30;;;;;;5015547;28;20017;-79
2021/01/06 02:12:38;;;;;;;4.18;2.40;;;5.90;88.20;;;;;;4995083;28;20125;-79
2021/01/06 02:15:20;;;;;;;8.38;3.00;;;5.90;88.30;;;;;;5015068;28;20064;-78
2021/01/06 02:17:46;;;;;;;7.85;2.88;;;5.90;88.40;;;;;;4997749;28;20474;-78
2021/01/06 02:20:17;;;;;;;6.05;2.33;;;5.90;88.30;;;;;;4997102;28;20018;-79
2021/01/06 02:22:44;;;;;;;4.85;2.25;;;5.90;88.30;;;;;;5014935;28;20026;-79
2021/01/06 02:25:11;;;;;;;5.57;2.55;;;5.90;88.20;;;;;;5014356;28;20033;-80
2021/01/06 02:27:38;;;;;;;6.88;2.60;;;5.90;88.30;;;;;;4997245;28;20122;-80
2021/01/06 02:30:06;;;;;;;4.03;2.05;;;5.90;88.30;;;;;;4996981;28;20022;-80
2021/01/06 02:32:31;;;;;;;8.10;2.65;;;5.90;88.30;;;;;;4996859;28;20080;-79
2021/01/06 02:34:57;;;;;;;5.82;2.30;;;5.90;88.30;;;;;;4996886;28;20022;-80
2021/01/06 02:37:23;;;;;;;6.43;2.63;;;5.80;88.30;;;;;;5014058;28;20022;-79
2021/01/06 02:39:50;;;;;;;5.85;2.63;;;5.90;88.40;;;;;;4996667;28;20152;-81
2021/01/06 02:42:16;;;;;;;6.90;3.15;;;5.90;88.30;;;;;;4996460;28;20104;-80
2021/01/06 02:44:45;;;;;;;6.75;2.70;;;5.90;88.30;;;;;;5013997;28;20479;-79
2021/01/06 02:47:12;;;;;;;7.38;2.58;;;5.80;88.20;;;;;;4996364;28;20435;-81
2021/01/06 02:49:38;;;;;;;5.68;2.25;;;5.80;88.30;;;;;;4996955;28;20046;-80
2021/01/06 02:52:16;;;;;;;5.15;2.17;;;5.70;88.30;;;;;;4996836;28;20092;-79
2021/01/06 02:54:44;;;;;;;7.15;2.60;;;5.80;88.40;;;;;;5014694;28;20028;-80
2021/01/06 02:57:11;;;;;;;6.57;2.70;;;5.70;88.30;;;;;;5016895;28;20076;-80
2021/01/06 02:59:42;;;;;;;6.45;3.03;;;5.70;88.40;;;;;;5000546;28;20021;-80
2021/01/06 03:02:22;;;;;;;6.80;2.80;;;5.70;88.50;;;;;;5000224;28;20130;-80
2021/01/06 03:04:58;;;;;;;7.13;2.92;;;5.80;88.40;;;;;;5019061;28;20044;-80
2021/01/06 03:07:27;;;;;;;7.57;3.10;;;5.80;88.30;;;;;;5013714;28;20060;-81
2021/01/06 03:09:52;;;;;;;5.47;2.15;;;5.70;88.30;;;;;;5014339;28;20452;-80
2021/01/06 03:12:30;;;;;;;6.25;2.55;;;5.70;88.20;;;;;;5013455;28;20041;-81
2021/01/06 03:14:57;;;;;;;5.82;2.30;;;5.80;88.20;;;;;;4996466;28;20040;-80
2021/01/06 03:17:23;;;;;;;9.57;3.72;;;5.80;88.20;;;;;;4995850;28;20057;-80
2021/01/06 03:19:53;;;;;;;7.40;3.30;;;5.80;88.20;;;;;;5013646;28;20452;-80
2021/01/06 03:22:23;;;;;;;8.18;2.85;;;5.80;88.20;;;;;;4995810;28;20033;-80
2021/01/06 03:25:11;;;;;;;6.00;2.65;;;5.80;88.20;;;;;;4996430;28;20102;-80
2021/01/06 03:27:40;;;;;;;5.68;2.88;;;5.80;88.10;;;;;;5013241;28;20010;-78
2021/01/06 03:30:10;;;;;;;6.53;2.40;;;5.80;88.00;;;;;;5013437;28;20037;-78
2021/01/06 03:32:41;;;;;;;6.75;2.55;;;5.80;88.10;;;;;;5013149;28;20029;-78
2021/01/06 03:35:31;;;;;;;10.43;3.20;;;5.80;88.10;;;;;;4995894;28;20022;-78
2021/01/06 03:38:23;;;;;;;6.43;2.55;;;5.80;88.00;;;;;;5013549;28;20093;-78
2021/01/06 03:40:52;;;;;;;7.05;2.58;;;5.80;88.00;;;;;;4990559;28;20064;-78
2021/01/06 03:43:19;;;;;;;6.55;2.58;;;5.70;88.10;;;;;;4995159;28;20018;-80
2021/01/06 03:45:48;;;;;;;7.38;3.20;;;5.70;88.10;;;;;;5013225;28;20579;-79
2021/01/06 03:48:19;;;;;;;5.28;2.40;;;5.80;88.10;;;;;;5013222;28;20045;-78
2021/01/06 03:50:51;;;;;;;8.07;3.10;;;5.80;88.20;;;;;;4995631;28;20104;-78
2021/01/06 03:53:37;;;;;;;7.82;3.30;;;5.70;88.30;;;;;;5012696;28;20021;-80
2021/01/06 03:56:11;;;;;;;5.88;2.63;;;5.80;88.00;;;;;;5012995;28;20540;-79
2021/01/06 03:59:02;;;;;;;5.97;2.65;;;5.70;88.00;;;;;;5012722;28;20416;-79
2021/01/06 04:01:52;;;;;;;8.23;2.53;;;5.70;88.00;;;;;;4995310;28;20076;-79
2021/01/06 04:04:23;;;;;;;6.82;2.60;;;5.70;88.10;;;;;;5012643;28;20054;-80
2021/01/06 04:06:51;;;;;;;6.50;2.90;;;5.70;88.10;;;;;;4995794;28;20053;-79
2021/01/06 04:09:38;;;;;;;6.50;2.78;;;5.70;88.00;;;;;;5012683;28;20022;-83
2021/01/06 04:12:10;;;;;;;5.18;2.42;;;5.70;88.00;;;;;;4995317;28;20022;-79
2021/01/06 04:14:37;;;;;;;6.45;2.60;;;5.70;88.10;;;;;;4994782;28;20022;-79
2021/01/06 04:17:21;;;;;;;7.13;2.60;;;5.60;88.10;;;;;;4995485;28;20026;-78
2021/01/06 04:19:53;;;;;;;6.90;2.50;;;5.70;88.10;;;;;;4995410;28;20044;-79
2021/01/06 04:22:50;;;;;;;4.88;2.33;;;5.60;88.00;;;;;;4995023;28;20037;-80
2021/01/06 04:25:30;;;;;;;9.73;2.92;;;5.60;88.00;;;;;;5011303;28;20037;-78
2021/01/06 04:28:09;;;;;;;5.63;2.58;;;5.60;88.00;;;;;;5012438;28;20072;-80
2021/01/06 04:30:37;;;;;;;4.45;2.53;;;5.60;88.00;;;;;;4994642;28;20022;-80
2021/01/06 04:33:07;;;;;;;8.38;3.08;;;5.60;88.10;;;;;;4995747;28;20423;-78
2021/01/06 04:35:33;;;;;;;8.55;2.40;;;5.60;88.00;;;;;;4996534;28;20456;-80
2021/01/06 04:38:00;;;;;;;7.78;2.50;;;5.60;87.90;;;;;;5013386;28;20022;-80
2021/01/06 04:40:32;;;;;;;6.75;2.38;;;5.60;87.90;;;;;;4996594;28;20025;-79
2021/01/06 04:43:06;;;;;;;8.68;3.78;;;5.60;87.80;;;;;;5018187;28;20045;-80
2021/01/06 04:45:39;;;;;;;7.60;3.20;;;5.60;87.90;;;;;;5010222;28;20030;-79
2021/01/06 04:48:11;;;;;;;8.43;2.60;;;5.60;87.90;;;;;;5016616;28;20018;-81
2021/01/06 04:51:14;;;;;;;7.93;2.85;;;5.50;88.00;;;;;;5009642;28;20030;-80
2021/01/06 04:54:02;;;;;;;8.25;3.13;;;5.50;88.10;;;;;;5016805;28;20100;-80
2021/01/06 04:57:09;;;;;;;4.25;2.25;;;5.50;88.20;;;;;;5011406;28;20127;-80
2021/01/06 04:59:58;;;;;;;9.00;2.92;;;5.50;88.10;;;;;;4996302;28;20018;-80
2021/01/06 05:02:50;;;;;;;4.82;1.85;;;5.40;88.20;;;;;;4996098;28;20105;-80
2021/01/06 05:05:46;;;;;;;7.95;2.85;;;5.40;88.30;;;;;;4995775;28;20024;-80
2021/01/06 05:08:35;;;;;;;9.15;2.72;;;5.40;88.20;;;;;;5016561;28;20026;-79
2021/01/06 05:11:22;;;;;;;6.25;2.65;;;5.40;88.20;;;;;;4998672;28;20054;-80
2021/01/06 05:14:10;;;;;;;8.63;2.55;;;5.40;88.10;;;;;;5016908;28;20025;-80
2021/01/06 05:16:39;;;;;;;10.20;2.95;;;5.40;88.20;;;;;;4998272;28;20026;-80
2021/01/06 05:19:11;;;;;;;9.35;3.15;;;5.40;88.20;;;;;;4998522;28;20018;-79
2021/01/06 05:21:38;;;;;;;6.38;2.85;;;5.50;88.20;;;;;;4998384;28;20076;-79
2021/01/06 05:24:20;;;;;;;7.32;2.58;;;5.40;88.20;;;;;;5021587;28;20018;-80
2021/01/06 05:27:13;;;;;;;8.90;2.97;;;5.40;88.20;;;;;;5021132;28;20022;-80
2021/01/06 05:29:51;;;;;;;4.70;2.35;;;5.50;88.20;;;;;;5004685;28;20060;-80
2021/01/06 05:32:25;;;;;;;9.23;3.50;;;5.40;88.10;;;;;;5005666;28;20392;-80
2021/01/06 05:35:19;;;;;;;6.90;2.42;;;5.40;88.20;;;;;;4998517;28;20029;-80
2021/01/06 05:37:51;;;;;;;7.43;2.83;;;5.40;88.20;;;;;;4990494;28;20029;-80
2021/01/06 05:40:16;;;;;;;;;;;5.40;88.30;;;;;;5014954;28;20424;-80
2021/01/06 05:42:55;;;;;;;6.03;2.30;;;5.30;88.20;;;;;;4997682;28;19945;-80
2021/01/06 05:45:24;;;;;;;8.80;3.08;;;5.30;88.20;;;;;;4998196;28;20025;-80
2021/01/06 05:47:58;;;;;;;6.10;2.13;;;5.30;88.20;;;;;;5014383;28;20018;-80
2021/01/06 05:50:35;;;;;;;8.75;2.50;;;5.30;88.20;;;;;;5034933;28;20052;-80
2021/01/06 05:53:35;;;;;;;6.70;2.42;;;5.40;88.30;;;;;;5035119;28;20097;-80
2021/01/06 05:56:17;;;;;;;8.23;2.58;;;5.30;88.20;;;;;;5034125;28;20488;-81
2021/01/06 05:58:51;;;;;;;5.88;2.15;;;5.30;88.40;;;;;;5034627;28;20017;-80
2021/01/06 06:01:51;;;;;;;8.73;2.65;;;5.30;88.40;;;;;;5035361;28;20497;-80
2021/01/06 06:04:37;;;;;;;6.88;2.13;;;5.30;88.30;;;;;;5017204;28;20024;-80
2021/01/06 06:07:11;;;;;;;8.57;2.63;;;5.30;88.30;;;;;;5017593;28;20029;-80
2021/01/06 06:10:08;;;;;;;7.72;2.15;;;5.20;88.40;;;;;;5017158;28;20022;-80
2021/01/06 06:12:36;;;;;;;3.58;1.67;;;5.20;88.40;;;;;;5016729;28;20040;-80
2021/01/06 06:15:23;;;;;;;4.53;1.98;;;5.20;88.60;;;;;;5017369;28;20022;-79
2021/01/06 06:18:17;;;;;;;6.60;2.10;;;5.20;88.50;;;;;;4996964;28;20033;-80
2021/01/06 06:21:00;;;;;;;7.60;2.45;;;5.20;88.50;;;;;;5026945;28;20061;-77
2021/01/06 06:23:47;;;;;;;6.78;2.03;;;5.20;88.50;;;;;;4994554;28;20332;-77
2021/01/06 06:26:41;;;;;;;6.25;2.40;;;5.10;88.50;;;;;;5012144;28;20049;-77
2021/01/06 06:29:35;;;;;;;5.72;2.17;;;5.10;88.50;;;;;;5007096;28;20034;-76
2021/01/06 06:32:02;;;;;;;4.78;2.03;;;5.10;88.50;;;;;;5012093;28;20088;-77
2021/01/06 06:34:45;;;;;;;4.43;1.83;;;5.10;88.50;;;;;;5011938;28;20022;-80
2021/01/06 06:37:19;;;;;;;3.65;2.03;;;5.10;88.40;;;;;;5027359;28;20069;-78
2021/01/06 06:40:08;;;;;;;5.28;1.98;;;5.10;88.50;;;;;;5011749;28;20026;-75
2021/01/06 06:42:46;;;;;;;6.03;2.30;;;5.10;88.50;;;;;;5011413;28;20101;-78
2021/01/06 06:45:11;;;;;;;6.53;2.53;;;5.00;88.60;;;;;;5012092;28;20022;-78
2021/01/06 06:47:49;;;;;;;5.82;2.45;;;4.90;88.70;;;;;;5027374;28;20344;-81
2021/01/06 06:50:43;;;;;;;4.85;1.98;;;5.00;88.80;;;;;;5014675;28;20050;-80
2021/01/06 06:53:40;;;;;;;3.97;1.65;;;4.90;88.80;;;;;;5029720;28;20389;-80
2021/01/06 06:56:24;;;;;;;4.65;1.92;;;4.90;88.90;;;;;;4996695;28;20021;-81
2021/01/06 06:58:57;;;;;;;6.13;2.00;;;4.90;88.90;;;;;;5013514;28;20072;-80
2021/01/06 07:01:33;;;;;;;6.05;2.47;;;4.90;88.90;;;;;;4996680;28;20036;-81
2021/01/06 07:04:03;;;;;;;6.22;1.80;;;4.90;88.90;;;;;;5014294;28;20084;-80
2021/01/06 07:06:30;;;;;;;4.40;1.83;;;4.80;88.90;;;;;;4996607;28;20066;-80
2021/01/06 07:08:59;;;;;;;5.57;2.08;;;4.80;88.90;;;;;;4996445;28;20440;-80
2021/01/06 07:11:45;;;;;;;4.90;2.22;;;4.80;88.90;;;;;;5014203;28;20076;-80
2021/01/06 07:14:33;;;;;;;4.18;1.73;;;4.90;88.90;;;;;;5014168;28;20018;-80
2021/01/06 07:17:12;;;;;;;4.05;1.80;;;4.80;88.80;;;;;;5029204;28;20367;-80
2021/01/06 07:19:50;;;;;;;5.03;1.52;;;4.90;88.80;;;;;;5028639;28;20026;-81
2021/01/06 07:22:21;;;;;;;2.20;1.33;;;4.90;88.60;;;;;;5029089;28;20025;-80
2021/01/06 07:24:55;;;;;;;7.60;2.47;;;5.00;88.60;;;;;;5028882;28;20521;-82
2021/01/06 07:27:21;;;;;;;7.40;2.95;;;5.00;88.30;;;;;;4995847;28;20037;-81
2021/01/06 07:29:51;;;;;;;6.88;2.47;;;5.00;88.40;;;;;;5027782;28;20482;-81
2021/01/06 07:32:19;;;;;;;3.78;1.83;;;5.10;88.10;;;;;;5013582;28;20084;-81
2021/01/06 07:34:50;;;;;;;6.25;1.70;;;5.10;87.90;;;;;;4995741;28;20024;-80
2021/01/06 07:38:00;;;;;;;6.30;1.75;;;5.20;87.90;;;;;;5029024;28;20101;-80
2021/01/06 07:40:33;;;;;;;6.20;2.17;;;5.20;87.70;;;;;;5007819;28;20216;-80
2021/01/06 07:43:08;;;;;;;4.80;2.03;;;5.20;87.70;;;;;;5013342;28;20467;-79
2021/01/06 07:45:41;;;;;;;7.15;2.25;;;5.20;87.60;;;;;;5028305;28;20077;-81
2021/01/06 07:48:40;;;;;;;3.90;1.85;;;5.30;87.60;;;;;;4996050;28;20022;-79
2021/01/06 07:51:16;;;;;;;6.38;2.50;;;5.30;87.50;;;;;;4998323;28;20029;-78
2021/01/06 07:54:06;;;;;;;7.32;2.72;;;5.30;87.50;;;;;;5021495;28;20029;-79
2021/01/06 07:56:50;;;;;;;6.40;2.40;;;5.30;87.50;;;;;;5017264;28;20083;-81
2021/01/06 07:59:18;;;;;;;5.22;1.65;;;5.20;87.50;;;;;;5008275;28;20022;-80
2021/01/06 08:02:05;;;;;;;6.00;2.10;;;5.20;87.50;;;;;;5028340;28;20026;-80
2021/01/06 08:05:05;;;;;;;4.22;1.88;;;5.30;87.50;;;;;;5028566;28;20026;-81
2021/01/06 08:07:30;;;;;;;9.48;3.05;;;5.30;87.40;;;;;;5028326;28;20026;-81
2021/01/06 08:09:56;;;;;;;6.93;2.58;;;5.30;87.50;;;;;;5028033;28;20486;-79
2021/01/06 08:12:26;;;;;;;6.82;2.15;;;5.30;87.40;;;;;;5028211;28;20026;-80
2021/01/06 08:15:11;;;;;;;8.57;2.30;;;5.30;87.30;;;;;;5012996;28;20033;-81
2021/01/06 08:18:08;;;;;;;3.83;2.28;;;5.30;87.20;;;;;;5012464;28;20022;-81
2021/01/06 08:21:02;;;;;;;6.38;2.40;;;5.30;87.30;;;;;;5012957;28;20026;-79
2021/01/06 08:23:43;;;;;;;5.80;1.95;;;5.30;87.30;;;;;;5013156;28;20020;-80
2021/01/06 08:26:44;;;;;;;4.40;2.13;;;5.30;87.30;;;;;;5028202;28;20522;-80
2021/01/06 08:29:15;;;;;;;5.50;2.22;;;5.30;87.30;;;;;;4994988;28;20014;-81
2021/01/06 08:31:42;;;;;;;5.28;2.28;;;5.30;87.30;;;;;;5012219;28;20153;-80
2021/01/06 08:34:23;;;;;;;10.40;3.30;;;5.30;87.30;;;;;;4995038;28;20018;-81
2021/01/06 08:37:11;;;;;;;5.68;2.78;;;5.30;87.20;;;;;;5012689;28;20053;-80
2021/01/06 08:39:52;;;;;;;9.80;2.35;;;5.30;87.20;;;;;;5034368;28;20017;-86
2021/01/06 08:42:38;;;;;;;8.25;2.90;;;5.30;87.20;;;;;;5021807;28;20021;-80
2021/01/06 08:45:06;;;;;;;3.97;2.10;;;5.30;87.10;;;;;;5043536;28;20044;-79
2021/01/06 08:47:38;;;;;;;6.25;2.42;;;5.30;87.00;;;;;;5009075;28;20013;-80
2021/01/06 08:50:16;;;;;;;7.53;2.20;;;5.30;87.00;;;;;;4999284;28;20077;-79
2021/01/06 08:52:50;;;;;;;7.35;2.40;;;5.40;87.00;;;;;;5034951;28;20057;-80
2021/01/06 08:55:38;;;;;;;6.00;2.20;;;5.40;87.00;;;;;;5012873;28;20014;-79
2021/01/06 08:58:22;;;;;;;6.03;2.22;;;5.40;86.90;;;;;;5024549;28;20022;-80
2021/01/06 09:00:50;;;;;;;4.25;1.98;;;5.40;86.80;;;;;;5016354;28;20076;-80
2021/01/06 09:03:19;;;;;;;5.05;2.35;;;5.40;86.80;;;;;;5031568;28;20531;-80
2021/01/06 09:05:47;;;;;;;3.67;2.00;;;5.40;86.80;;;;;;5031020;28;20026;-81
2021/01/06 09:08:25;;;;;;;6.97;2.75;;;5.40;86.70;;;;;;5031522;28;20029;-79
2021/01/06 09:11:00;;;;;;;5.65;2.30;;;5.40;87.30;;;;;;5030907;28;20367;-80
2021/01/06 09:13:32;;;;;;;7.63;2.53;;;5.40;86.70;;;;;;5016147;28;20026;-80
2021/01/06 09:16:06;;;;;;;4.32;2.03;;;5.40;86.70;;;;;;4997865;28;20112;-80
2021/01/06 09:18:40;;;;;;;5.15;2.10;;;5.50;86.60;;;;;;4998340;28;20054;-79
2021/01/06 09:21:29;;;;;;;5.40;2.63;;;5.50;86.50;;;;;;5016118;28;20475;-80
2021/01/06 09:24:12;;;;;;;5.05;1.95;;;5.50;86.40;;;;;;4998097;28;20071;-81
2021/01/06 09:26:40;;;;;;;7.80;2.25;;;5.50;86.20;;;;;;5016062;28;20141;-80
2021/01/06 09:29:11;;;;;;;4.55;1.95;;;5.50;86.20;;;;;;5015974;28;20022;-81
2021/01/06 09:31:44;;;;;;;4.80;2.08;;;5.50;86.20;;;;;;5015787;28;20026;-80
2021/01/06 09:34:14;;;;;;;5.13;2.63;;;5.50;86.10;;;;;;5016066;28;20029;-81
2021/01/06 09:36:40;;;;;;;5.50;2.10;;;5.50;86.10;;;;;;4998317;28;20021;-80
2021/01/06 09:39:17;;;;;;;7.70;2.10;;;5.50;86.00;;;;;;5030995;28;20485;-81
2021/01/06 09:41:44;;;;;;;6.60;2.40;;;5.60;86.00;;;;;;4997779;28;20371;-81
2021/01/06 09:44:10;;;;;;;5.65;2.20;;;5.60;86.00;;;;;;4998082;28;20017;-81
2021/01/06 09:47:27;;;;;;;4.65;2.10;;;5.60;86.00;;;;;;4998030;28;20042;-81
2021/01/06 09:50:01;;;;;;;5.75;2.53;;;5.60;85.80;;;;;;4973601;28;20133;-81
2021/01/06 09:52:46;;;;;;;4.75;2.05;;;5.60;85.80;;;;;;4957250;28;20022;-81
2021/01/06 09:55:21;;;;;;;4.25;2.13;;;5.70;85.80;;;;;;4958311;28;20031;-81
2021/01/06 09:57:52;;;;;;;4.70;2.53;;;5.70;85.70;;;;;;4957918;28;20520;-82
2021/01/06 10:00:21;;;;;;;5.88;2.22;;;5.80;85.70;;;;;;4958659;28;20460;-79
2021/01/06 10:02:49;;;;;;;7.07;2.75;;;5.80;85.60;;;;;;4974623;28;20022;-81
2021/01/06 10:05:29;;;;;;;7.50;2.42;;;5.80;85.50;;;;;;4976364;28;20023;-80
2021/01/06 10:08:15;;;;;;;6.53;2.63;;;5.80;85.50;;;;;;4966419;28;20035;-80
2021/01/06 10:10:42;;;;;;;6.28;2.47;;;5.90;85.40;;;;;;4981417;28;20031;-81
2021/01/06 10:13:26;;;;;;;7.75;2.83;;;5.90;85.30;;;;;;4989197;28;20051;-79
2021/01/06 10:16:17;;;;;;;4.53;2.17;;;5.90;85.10;;;;;;4978441;28;20023;-80
2021/01/06 10:19:04;;;;;;;4.68;2.15;;;6.00;85.20;;;;;;4975857;28;20019;-80
2021/01/06 10:21:49;;;;;;;6.10;2.75;;;5.90;85.10;;;;;;4993407;28;20042;-80
2021/01/06 10:24:40;;;;;;;5.20;2.10;;;5.90;85.10;;;;;;5010584;28;20029;-81
2021/01/06 10:27:24;;;;;;;6.00;2.50;;;5.90;85.30;;;;;;4994667;28;20456;-80
2021/01/06 10:29:54;;;;;;;8.32;2.25;;;5.80;85.40;;;;;;4994595;28;20021;-81
2021/01/06 10:32:37;;;;;;;6.78;2.88;;;5.80;85.40;;;;;;4993624;28;20037;-80
2021/01/06 10:35:37;;;;;;;6.72;2.13;;;5.90;85.40;;;;;;4994603;28;20440;-80
2021/01/06 10:38:26;;;;;;;6.82;2.88;;;5.90;85.20;;;;;;4993463;28;20026;-80
2021/01/06 10:40:55;;;;;;;4.22;2.25;;;6.00;85.00;;;;;;4974789;28;20057;-80
2021/01/06 10:43:44;;;;;;;4.93;2.38;;;6.00;85.00;;;;;;4995309;28;20038;-80
2021/01/06 10:46:33;;;;;;;7.57;2.53;;;6.00;85.00;;;;;;4993277;28;20479;-80
2021/01/06 10:48:58;;;;;;;7.82;2.80;;;6.00;84.90;;;;;;5002578;28;20046;-81
2021/01/06 10:51:58;;;;;;;5.95;2.30;;;6.00;84.90;;;;;;5029471;28;20078;-80
2021/01/06 10:54:37;;;;;;;5.07;2.20;;;6.00;84.80;;;;;;5029149;28;20408;-81
2021/01/06 10:57:35;;;;;;;6.25;2.25;;;6.10;84.80;;;;;;4996214;28;20026;-80
2021/01/06 11:00:10;;;;;;;3.80;1.92;;;6.10;84.60;;;;;;5013473;28;20379;-80
2021/01/06 11:03:06;;;;;;;3.30;2.00;;;6.00;84.80;;;;;;5013998;28;20033;-80
2021/01/06 11:05:38;;;;;;;4.32;1.95;;;6.00;84.80;;;;;;5029359;28;20021;-80
2021/01/06 11:08:22;;;;;;;11.35;3.67;;;6.00;84.90;;;;;;5013741;28;20363;-80
2021/01/06 11:11:21;;;;;;;4.47;1.90;;;6.00;84.90;;;;;;5028596;28;20080;-86
2021/01/06 11:14:13;;;;;;;4.13;1.77;;;6.00;84.80;;;;;;5013952;28;20041;-80
2021/01/06 11:16:46;;;;;;;6.32;1.58;;;6.00;84.90;;;;;;4996411;28;20021;-80
2021/01/06 11:19:54;;;;;;;5.63;2.13;;;6.00;84.80;;;;;;5013484;28;20049;-80
2021/01/06 11:22:44;;;;;;;3.53;1.50;;;6.10;84.80;;;;;;5006701;28;20093;-80
2021/01/06 11:25:39;;;;;;;3.72;1.40;;;6.00;84.80;;;;;;5013452;28;20088;-80
2021/01/06 11:28:04;;;;;;;4.65;2.05;;;6.00;84.70;;;;;;5028193;28;20029;-80
2021/01/06 11:30:33;;;;;;;4.05;1.98;;;6.00;84.80;;;;;;5028558;28;20026;-80
2021/01/06 11:33:14;;;;;;;5.85;1.75;;;6.00;84.60;;;;;;4995394;28;20022;-79
2021/01/06 11:36:05;;;;;;;6.18;1.70;;;6.10;84.60;;;;;;5028899;28;20045;-79
2021/01/06 11:38:39;;;;;;;4.03;1.65;;;6.10;84.50;;;;;;5007286;28;20301;-80
2021/01/06 11:41:12;;;;;;;2.63;1.23;;;6.10;84.40;;;;;;5013010;28;20025;-79
2021/01/06 11:44:09;;;;;;;4.97;1.83;;;6.10;84.30;;;;;;5013594;28;20057;-79
2021/01/06 11:46:52;;;;;;;5.22;2.20;;;6.20;84.20;;;;;;5028662;28;20344;-79
2021/01/06 11:49:38;;;;;;;4.45;1.60;;;6.10;84.10;;;;;;5028365;28;20096;-79
2021/01/06 11:52:33;;;;;;;2.80;1.83;;;6.10;84.10;;;;;;5027981;28;20418;-79
2021/01/06 11:55:17;;;;;;;3.03;1.38;;;6.20;84.10;;;;;;4995263;28;20092;-80
2021/01/06 11:57:54;;;;;;;4.60;1.52;;;6.30;84.00;;;;;;5013192;28;20022;-80
2021/01/06 12:01:00;;;;;;;4.13;1.23;;;6.20;84.00;;;;;;5013485;28;20076;-80
2021/01/06 12:03:35;;;;;;;3.95;1.55;;;6.30;83.90;;;;;;5003695;28;20038;-79
2021/01/06 12:06:16;;;;;;;2.90;1.10;;;6.30;83.90;;;;;;5027687;28;20042;-80
2021/01/06 12:09:18;;;;;;;1.40;1.00;;;6.30;83.80;;;;;;5012902;28;20471;-80
2021/01/06 12:12:04;;;;;;;;;;;6.30;83.70;;;;;;5028026;28;20125;-80
2021/01/06 12:14:54;;;;;;;5.72;2.88;;;6.20;83.80;;;;;;5013008;28;19913;-80
2021/01/06 12:17:29;;;;;;;5.75;1.88;;;6.30;83.70;;;;;;5027971;28;20474;-80
2021/01/06 12:19:58;;;;;;;4.47;1.63;;;6.30;83.70;;;;;;4995405;28;20022;-79
2021/01/06 12:22:25;;;;;;;3.30;1.48;;;6.30;83.80;;;;;;5012710;28;20029;-80
2021/01/06 12:25:06;;;;;;;1.80;1.30;;;6.30;83.70;;;;;;4994648;28;20033;-80
2021/01/06 12:27:38;;;;;;;;;;;6.30;83.60;;;;;;5028434;28;20029;-80
2021/01/06 12:30:10;;;;;;;2.35;1.13;;;6.20;83.70;;;;;;5027371;28;20411;-81
2021/01/06 12:33:00;;;;;;;2.50;1.33;;;6.30;83.60;;;;;;5027623;28;20030;-81
2021/01/06 12:35:39;;;;;;;3.70;1.20;;;6.30;83.40;;;;;;5027684;28;20490;-80
2021/01/06 12:38:12;;;;;;;2.20;1.15;;;6.30;83.30;;;;;;5011728;28;20472;-81
2021/01/06 12:41:01;;;;;;;2.17;1.17;;;6.10;83.30;;;;;;4994953;28;20095;-80
2021/01/06 12:43:35;;;;;;;2.60;1.38;;;6.20;83.20;;;;;;5013402;28;20034;-81
2021/01/06 12:46:36;;;;;;;2.67;1.17;;;6.20;83.20;;;;;;5013857;28;20022;-81
2021/01/06 12:49:13;;;;;;;2.25;1.10;;;6.30;83.10;;;;;;4997256;28;20076;-79
2021/01/06 12:51:43;;;;;;;2.55;1.30;;;6.20;83.00;;;;;;5033912;28;20033;-80
2021/01/06 12:54:18;;;;;;;2.78;1.60;;;6.30;83.10;;;;;;4997203;28;20137;-80
2021/01/06 12:57:07;;;;;;;2.72;1.48;;;6.20;83.00;;;;;;5020223;28;20088;-80
2021/01/06 12:59:46;;;;;;;2.13;1.08;;;6.30;82.90;;;;;;5004499;28;20033;-81
2021/01/06 13:02:31;;;;;;;2.60;1.00;;;6.30;83.00;;;;;;5002610;28;20080;-80
2021/01/06 13:05:09;;;;;;;2.58;1.52;;;6.30;82.90;;;;;;4999679;28;20018;-86
2021/01/06 13:07:37;;;;;;;3.67;1.45;;;6.20;83.40;;;;;;4995044;28;20022;-80
2021/01/06 13:10:22;;;;;;;2.40;1.13;;;6.20;82.80;;;;;;4994502;28;20072;-81
2021/01/06 13:12:54;;;;;;;3.80;1.50;;;6.30;82.90;;;;;;5027998;28;20060;-81
2021/01/06 13:15:25;;;;;;;4.18;1.15;;;6.30;82.90;;;;;;4994332;28;20033;-80
2021/01/06 13:18:15;;;;;;;3.40;1.00;;;6.30;82.80;;;;;;5027351;28;20132;-81
2021/01/06 13:20:41;;;;;;;2.25;1.38;;;6.30;82.70;;;;;;4995041;28;20033;-81
2021/01/06 13:23:40;;;;;;;1.30;1.05;;;6.20;82.60;;;;;;5011326;28;20349;-81
2021/01/06 13:26:17;;;;;;;0.93;0.88;;;6.30;82.40;;;;;;5011985;28;20093;-81
2021/01/06 13:29:04;;;;;;;1.50;1.10;;;6.20;82.40;;;;;;5015840;28;20018;-80
2021/01/06 13:31:38;;;;;;;2.88;1.80;;;6.20;82.20;;;;;;5015712;28;20036;-80
2021/01/06 13:34:16;;;;;;;2.83;1.40;;;6.20;82.30;;;;;;5030520;28;20038;-81
2021/01/06 13:36:48;;;;;;;3.08;1.30;;;6.20;82.30;;;;;;5015641;28;20478;-79
2021/01/06 13:39:37;;;;;;;1.98;1.10;;;6.20;82.30;;;;;;5015544;28;20049;-80
2021/01/06 13:42:22;;;;;;;1.40;0.90;;;6.30;82.20;;;;;;5015350;28;20053;-80
2021/01/06 13:44:52;;;;;;;1.63;0.82;;;6.30;82.10;;;;;;5030686;28;20053;-80
2021/01/06 13:47:28;;;;;;;3.28;1.30;;;6.20;82.00;;;;;;5030284;28;20446;-79
2021/01/06 13:49:53;;;;;;;3.03;1.35;;;6.30;82.00;;;;;;5015740;28;20096;-79
2021/01/06 13:52:22;;;;;;;6.00;1.33;;;6.20;82.00;;;;;;5030194;28;20309;-80